Time;durP1;ratioP1;P1;durP2;ratioP2;P2;SDS_P1;SDS_P2;PMS_P1;PMS_P2;Temp;Humidity;BMP_temperature;BMP_pressure;BME280_temperature;BME280_humidity;BME280_pressure;Samples;Min_cycle;Max_cycle;Signal;HPM_P1;HPM_P2
2022/01/31 00:00:49;;;;;;;21.13;5.00;;;;;;;;;;4784840;29;21430;-66
2022/01/31 00:03:16;;;;;;;17.80;5.22;;;;;;;;;;4788453;29;20058;-66
2022/01/31 00:05:42;;;;;;;20.13;5.05;;;;;;;;;;4787462;29;20047;-67
2022/01/31 00:08:08;;;;;;;22.38;4.90;;;;;;;;;;4784357;29;20051;-66
2022/01/31 00:10:34;;;;;;;24.85;5.70;;;;;;;;;;4787155;29;20047;-66
2022/01/31 00:13:07;;;;;;;21.13;5.60;;;;;;;;;;4785741;29;20054;-65
2022/01/31 00:15:39;;;;;;;25.70;6.25;;;;;;;;;;4782338;29;20082;-66
2022/01/31 00:18:05;;;;;;;19.17;6.15;;;;;;;;;;4787367;29;20148;-66
2022/01/31 00:20:31;;;;;;;23.67;6.22;;;;;;;;;;4766249;30;20061;-66
2022/01/31 00:22:57;;;;;;;22.33;6.88;;;;;;;;;;4785696;30;20050;-66
2022/01/31 00:25:23;;;;;;;18.35;5.85;;;;;;;;;;4786791;29;20054;-66
2022/01/31 00:27:49;;;;;;;22.92;6.07;;;;;;;;;;4786577;29;20127;-66
2022/01/31 00:30:16;;;;;;;22.73;6.82;;;;;;;;;;4785417;29;20385;-66
2022/01/31 00:32:42;;;;;;;18.40;6.28;;;;;;;;;;4786668;29;20054;-66
2022/01/31 00:35:09;;;;;;;21.77;7.47;;;;;;;;;;4786284;29;20129;-66
2022/01/31 00:37:35;;;;;;;18.65;7.03;;;;;;;;;;4786128;29;20050;-66
2022/01/31 00:40:02;;;;;;;17.73;6.40;;;;;;;;;;4786446;29;20051;-66
2022/01/31 00:42:29;;;;;;;20.65;6.75;;;;;;;;;;4785668;29;20046;-66
2022/01/31 00:45:00;;;;;;;24.67;7.85;;;;;;;;;;4786635;29;20476;-66
2022/01/31 00:47:30;;;;;;;19.73;7.53;;;;;;;;;;4787129;29;20554;-66
2022/01/31 00:50:09;;;;;;;20.95;7.50;;;;;;;;;;4783702;30;20554;-66
2022/01/31 00:52:36;;;;;;;22.33;8.40;;;;;;;;;;4780439;30;20497;-66
2022/01/31 00:55:03;;;;;;;20.73;8.00;;;;;;;;;;4785632;29;20050;-66
2022/01/31 00:57:29;;;;;;;22.95;8.00;;;;;;;;;;4763583;30;20409;-66
2022/01/31 00:59:55;;;;;;;23.63;8.48;;;;;;;;;;4785632;29;20060;-66
2022/01/31 01:02:22;;;;;;;21.45;8.90;;;;;;;;;;4786818;29;20047;-66
2022/01/31 01:04:48;;;;;;;19.45;8.15;;;;;;;;;;4786695;30;20051;-66
2022/01/31 01:07:15;;;;;;;22.83;8.90;;;;;;;;;;4785216;29;20119;-66
2022/01/31 01:09:44;;;;;;;17.13;7.90;;;;;;;;;;4784742;30;20075;-66
2022/01/31 01:12:11;;;;;;;21.27;7.78;;;;;;;;;;4782485;29;20377;-66
2022/01/31 01:14:37;;;;;;;22.38;8.38;;;;;;;;;;4786631;29;20414;-66
2022/01/31 01:17:03;;;;;;;26.02;9.30;;;;;;;;;;4785423;30;20407;-66
2022/01/31 01:19:30;;;;;;;22.17;9.40;;;;;;;;;;4787188;29;20612;-66
2022/01/31 01:21:56;;;;;;;21.48;9.77;;;;;;;;;;4785140;29;20628;-66
2022/01/31 01:24:22;;;;;;;24.85;10.80;;;;;;;;;;4784770;30;20086;-66
2022/01/31 01:26:49;;;;;;;29.30;10.70;;;;;;;;;;4786675;30;20058;-65
2022/01/31 01:29:15;;;;;;;19.40;10.05;;;;;;;;;;4785351;29;20082;-66
2022/01/31 01:31:44;;;;;;;28.60;11.55;;;;;;;;;;4785408;30;20051;-66
2022/01/31 01:34:10;;;;;;;24.02;10.32;;;;;;;;;;4785004;30;20059;-66
2022/01/31 01:36:38;;;;;;;23.13;9.73;;;;;;;;;;4785174;30;20051;-65
2022/01/31 01:39:04;;;;;;;22.20;11.07;;;;;;;;;;4784177;30;20136;-65
2022/01/31 01:41:30;;;;;;;22.95;11.23;;;;;;;;;;4786103;29;20596;-66
2022/01/31 01:43:56;;;;;;;25.08;10.50;;;;;;;;;;4775585;30;20047;-65
2022/01/31 01:46:22;;;;;;;18.98;10.90;;;;;;;;;;4786931;29;20054;-65
2022/01/31 01:48:48;;;;;;;23.40;9.93;;;;;;;;;;4788689;29;20476;-66
2022/01/31 01:51:14;;;;;;;15.95;9.23;;;;;;;;;;4790139;29;20043;-65
2022/01/31 01:53:40;;;;;;;19.23;9.07;;;;;;;;;;4787741;29;20472;-65
2022/01/31 01:56:08;;;;;;;19.02;9.55;;;;;;;;;;4787552;29;20062;-65
2022/01/31 01:58:42;;;;;;;17.63;8.88;;;;;;;;;;4798448;29;20051;-65
2022/01/31 02:01:08;;;;;;;17.23;7.63;;;;;;;;;;4788037;29;20063;-65
2022/01/31 02:03:35;;;;;;;18.15;8.93;;;;;;;;;;4789592;29;20054;-65
2022/01/31 02:06:02;;;;;;;18.95;8.98;;;;;;;;;;4788598;29;20075;-65
2022/01/31 02:08:28;;;;;;;16.48;8.80;;;;;;;;;;4788661;29;20374;-65
2022/01/31 02:10:55;;;;;;;19.30;8.40;;;;;;;;;;4789235;29;20054;-65
2022/01/31 02:13:21;;;;;;;13.52;8.48;;;;;;;;;;4789138;29;20077;-65
2022/01/31 02:15:50;;;;;;;18.23;8.50;;;;;;;;;;4788267;29;20104;-65
2022/01/31 02:18:17;;;;;;;20.60;8.43;;;;;;;;;;4789816;29;20404;-65
2022/01/31 02:20:44;;;;;;;15.60;7.50;;;;;;;;;;4788607;29;20058;-65
2022/01/31 02:23:11;;;;;;;21.58;8.30;;;;;;;;;;4787301;29;20507;-65
2022/01/31 02:25:56;;;;;;;13.70;6.30;;;;;;;;;;4771342;30;20512;-65
2022/01/31 02:28:24;;;;;;;18.07;7.60;;;;;;;;;;4785590;29;20059;-65
2022/01/31 02:30:50;;;;;;;16.88;8.07;;;;;;;;;;4787973;29;20100;-65
2022/01/31 02:33:18;;;;;;;15.70;6.75;;;;;;;;;;4787599;29;20561;-65
2022/01/31 02:35:44;;;;;;;11.75;7.40;;;;;;;;;;4787629;29;20501;-65
2022/01/31 02:38:11;;;;;;;12.45;6.47;;;;;;;;;;4787324;29;20051;-65
2022/01/31 02:40:37;;;;;;;15.23;6.10;;;;;;;;;;4788199;29;20039;-65
2022/01/31 02:43:03;;;;;;;12.15;6.18;;;;;;;;;;4772189;30;20489;-66
2022/01/31 02:45:30;;;;;;;12.20;6.05;;;;;;;;;;4789324;29;20589;-66
2022/01/31 02:47:58;;;;;;;9.52;5.57;;;;;;;;;;4787294;29;20058;-66
2022/01/31 02:50:25;;;;;;;10.63;5.63;;;;;;;;;;4788980;29;20047;-66
2022/01/31 02:53:00;;;;;;;15.18;6.80;;;;;;;;;;4788935;29;20036;-67
2022/01/31 02:55:26;;;;;;;13.93;6.57;;;;;;;;;;4784844;29;20264;-66
2022/01/31 02:57:52;;;;;;;14.73;5.90;;;;;;;;;;4783864;29;20059;-66
2022/01/31 03:00:18;;;;;;;17.10;6.85;;;;;;;;;;4788184;29;20121;-66
2022/01/31 03:02:44;;;;;;;15.82;7.38;;;;;;;;;;4788681;29;20040;-65
2022/01/31 03:05:10;;;;;;;13.85;6.57;;;;;;;;;;4785376;29;20489;-65
2022/01/31 03:07:37;;;;;;;13.35;6.30;;;;;;;;;;4784536;29;20417;-65
2022/01/31 03:10:03;;;;;;;12.73;6.40;;;;;;;;;;4785432;29;20105;-65
2022/01/31 03:12:29;;;;;;;14.25;6.03;;;;;;;;;;4785291;29;20175;-65
2022/01/31 03:14:55;;;;;;;15.07;7.07;;;;;;;;;;4786077;29;20142;-65
2022/01/31 03:17:21;;;;;;;14.18;6.13;;;;;;;;;;4788159;29;20545;-65
2022/01/31 03:19:53;;;;;;;17.45;7.03;;;;;;;;;;4787068;29;20051;-65
2022/01/31 03:22:23;;;;;;;21.20;7.07;;;;;;;;;;4786807;29;20055;-65
2022/01/31 03:24:49;;;;;;;18.15;7.05;;;;;;;;;;4786221;29;20726;-65
2022/01/31 03:27:16;;;;;;;15.40;6.47;;;;;;;;;;4785805;29;20424;-65
2022/01/31 03:29:42;;;;;;;22.33;6.47;;;;;;;;;;4786572;29;20516;-65
2022/01/31 03:32:08;;;;;;;15.95;5.15;;;;;;;;;;4782958;29;20091;-64
2022/01/31 03:34:34;;;;;;;15.93;4.05;;;;;;;;;;4783447;29;20052;-65
2022/01/31 03:37:00;;;;;;;21.52;3.67;;;;;;;;;;4784884;29;20050;-65
2022/01/31 03:39:26;;;;;;;13.63;3.08;;;;;;;;;;4786023;29;20058;-65
2022/01/31 03:41:52;;;;;;;17.33;3.58;;;;;;;;;;4786654;29;20092;-64
2022/01/31 03:44:18;;;;;;;23.67;3.53;;;;;;;;;;4785513;29;20051;-65
2022/01/31 03:46:44;;;;;;;18.08;3.05;;;;;;;;;;4782196;29;20522;-65
2022/01/31 03:49:10;;;;;;;20.67;3.53;;;;;;;;;;4786697;29;20043;-65
2022/01/31 03:51:36;;;;;;;19.83;3.63;;;;;;;;;;4786799;29;20058;-64
2022/01/31 03:54:06;;;;;;;22.92;4.00;;;;;;;;;;4785559;29;20391;-64
2022/01/31 03:56:32;;;;;;;20.25;3.38;;;;;;;;;;4785352;29;20134;-64
2022/01/31 03:58:58;;;;;;;20.33;3.60;;;;;;;;;;4786465;29;20051;-64
2022/01/31 04:01:25;;;;;;;18.70;3.40;;;;;;;;;;4786325;29;20123;-64
2022/01/31 04:03:51;;;;;;;26.10;4.68;;;;;;;;;;4784691;29;20047;-64
2022/01/31 04:06:17;;;;;;;19.60;3.80;;;;;;;;;;4783857;29;20122;-65
2022/01/31 04:08:43;;;;;;;24.42;3.85;;;;;;;;;;4784165;29;20055;-65
2022/01/31 04:11:10;;;;;;;27.77;3.85;;;;;;;;;;4785599;29;20122;-64
2022/01/31 04:13:37;;;;;;;15.00;2.85;;;;;;;;;;4785922;29;20031;-64
2022/01/31 04:16:03;;;;;;;20.52;3.65;;;;;;;;;;4785571;29;20480;-64
2022/01/31 04:18:29;;;;;;;18.02;3.25;;;;;;;;;;4770893;30;20058;-65
2022/01/31 04:20:55;;;;;;;16.52;3.08;;;;;;;;;;4787193;29;20093;-64
2022/01/31 04:23:23;;;;;;;17.27;3.00;;;;;;;;;;4784976;29;20058;-64
2022/01/31 04:31:13;;;;;;;23.20;3.08;;;;;;;;;;4785623;29;20036;-65
2022/01/31 04:33:39;;;;;;;23.50;2.88;;;;;;;;;;4783452;29;20147;-65
2022/01/31 04:36:14;;;;;;;18.40;2.70;;;;;;;;;;4784552;29;20051;-65
2022/01/31 04:38:41;;;;;;;15.68;2.80;;;;;;;;;;4786695;29;20098;-65
2022/01/31 04:41:07;;;;;;;15.63;2.90;;;;;;;;;;4784321;29;20083;-65
2022/01/31 04:43:33;;;;;;;13.38;2.55;;;;;;;;;;4786543;29;20032;-65
2022/01/31 04:46:02;;;;;;;13.18;2.33;;;;;;;;;;4785575;29;20058;-65
2022/01/31 04:48:28;;;;;;;16.02;2.50;;;;;;;;;;4785751;29;20062;-65
2022/01/31 04:50:54;;;;;;;19.55;2.78;;;;;;;;;;4785766;29;20043;-65
2022/01/31 04:53:20;;;;;;;16.05;3.35;;;;;;;;;;4783509;29;20051;-65
2022/01/31 04:55:46;;;;;;;24.58;2.95;;;;;;;;;;4782147;29;20040;-65
2022/01/31 04:58:12;;;;;;;14.55;2.72;;;;;;;;;;4784710;29;20039;-65
2022/01/31 05:00:38;;;;;;;23.60;3.17;;;;;;;;;;4785735;29;20043;-65
2022/01/31 05:03:11;;;;;;;24.00;4.03;;;;;;;;;;4783511;29;20047;-65
2022/01/31 05:05:37;;;;;;;21.67;3.78;;;;;;;;;;4785513;29;20129;-65
2022/01/31 05:08:04;;;;;;;25.25;3.75;;;;;;;;;;4784086;29;20131;-65
2022/01/31 05:10:30;;;;;;;20.83;3.33;;;;;;;;;;4785967;29;20055;-65
2022/01/31 05:12:57;;;;;;;25.15;3.55;;;;;;;;;;4784997;29;20055;-65
2022/01/31 05:15:23;;;;;;;27.05;3.35;;;;;;;;;;4783941;29;20043;-65
2022/01/31 05:17:49;;;;;;;19.83;3.30;;;;;;;;;;4785847;29;20051;-65
2022/01/31 05:20:15;;;;;;;15.77;2.83;;;;;;;;;;4784852;29;20051;-65
2022/01/31 05:22:41;;;;;;;10.73;1.70;;;;;;;;;;4787457;29;20061;-65
2022/01/31 05:25:07;;;;;;;11.10;1.85;;;;;;;;;;4789562;29;20381;-65
2022/01/31 05:27:33;;;;;;;7.82;1.80;;;;;;;;;;4789799;29;20118;-65
2022/01/31 05:29:59;;;;;;;8.27;1.70;;;;;;;;;;4789422;29;20097;-65
2022/01/31 05:32:25;;;;;;;9.50;1.95;;;;;;;;;;4782956;29;20114;-65
2022/01/31 05:34:51;;;;;;;11.65;1.40;;;;;;;;;;4788354;29;20484;-65
2022/01/31 05:37:17;;;;;;;13.55;2.13;;;;;;;;;;4790458;29;20050;-65
2022/01/31 05:39:45;;;;;;;14.30;2.38;;;;;;;;;;4782562;29;20378;-65
2022/01/31 05:42:11;;;;;;;11.55;2.28;;;;;;;;;;4788396;29;20054;-64
2022/01/31 05:44:37;;;;;;;8.73;1.90;;;;;;;;;;4787193;29;20054;-64
2022/01/31 05:47:04;;;;;;;14.35;2.08;;;;;;;;;;4788424;29;20075;-64
2022/01/31 05:49:30;;;;;;;10.20;1.88;;;;;;;;;;4789237;29;20047;-64
2022/01/31 05:52:04;;;;;;;14.82;1.67;;;;;;;;;;4788010;29;20524;-64
2022/01/31 05:54:31;;;;;;;16.15;2.65;;;;;;;;;;4784441;29;20051;-64
2022/01/31 05:56:57;;;;;;;12.60;1.92;;;;;;;;;;4789126;29;20074;-64
2022/01/31 05:59:24;;;;;;;15.07;2.65;;;;;;;;;;4789495;29;20070;-64
2022/01/31 06:01:50;;;;;;;12.98;2.75;;;;;;;;;;4789174;29;20047;-64
2022/01/31 06:04:16;;;;;;;17.05;3.15;;;;;;;;;;4785848;29;20054;-64
2022/01/31 06:06:42;;;;;;;14.82;2.53;;;;;;;;;;4786227;29;20047;-65
2022/01/31 06:09:08;;;;;;;20.42;2.72;;;;;;;;;;4787981;29;20050;-64
2022/01/31 06:11:34;;;;;;;13.95;2.75;;;;;;;;;;4785581;29;20043;-64
2022/01/31 06:14:01;;;;;;;16.50;2.70;;;;;;;;;;4786802;29;20561;-64
2022/01/31 06:16:28;;;;;;;18.85;3.25;;;;;;;;;;4789476;29;20122;-65
2022/01/31 06:18:54;;;;;;;17.00;2.92;;;;;;;;;;4789164;29;20039;-65
2022/01/31 06:21:20;;;;;;;11.23;2.20;;;;;;;;;;4787227;29;20086;-65
2022/01/31 06:23:46;;;;;;;16.35;2.58;;;;;;;;;;4785574;29;20048;-65
2022/01/31 06:26:13;;;;;;;18.70;2.97;;;;;;;;;;4786289;29;20054;-66
2022/01/31 06:28:39;;;;;;;17.08;2.75;;;;;;;;;;4786653;29;20043;-66
2022/01/31 06:31:06;;;;;;;18.90;2.50;;;;;;;;;;4786771;29;20055;-66
2022/01/31 06:33:32;;;;;;;19.08;2.50;;;;;;;;;;4785820;29;20051;-66
2022/01/31 06:35:59;;;;;;;8.75;1.50;;;;;;;;;;4784208;29;20074;-66
2022/01/31 06:38:26;;;;;;;15.13;2.30;;;;;;;;;;4802050;29;20055;-66
2022/01/31 06:40:52;;;;;;;9.15;1.67;;;;;;;;;;4788163;29;20066;-66
2022/01/31 06:43:18;;;;;;;7.95;1.70;;;;;;;;;;4780623;29;20035;-66
2022/01/31 06:45:44;;;;;;;9.90;1.45;;;;;;;;;;4787794;29;20043;-66
2022/01/31 06:48:10;;;;;;;11.40;2.17;;;;;;;;;;4788446;29;20050;-66
2022/01/31 06:50:36;;;;;;;10.73;1.60;;;;;;;;;;4788327;29;20126;-66
2022/01/31 06:53:05;;;;;;;12.60;2.33;;;;;;;;;;4785985;29;20104;-65
2022/01/31 06:55:33;;;;;;;13.77;2.25;;;;;;;;;;4787876;29;20046;-65
2022/01/31 06:57:59;;;;;;;15.32;1.92;;;;;;;;;;4786889;29;20428;-65
2022/01/31 07:00:25;;;;;;;14.60;2.10;;;;;;;;;;4788147;29;20524;-66
2022/01/31 07:02:51;;;;;;;12.60;1.95;;;;;;;;;;4785567;29;20047;-65
2022/01/31 07:05:18;;;;;;;9.98;1.83;;;;;;;;;;4786668;29;20047;-66
2022/01/31 07:07:44;;;;;;;12.43;2.05;;;;;;;;;;4788012;29;20043;-66
2022/01/31 07:10:10;;;;;;;8.68;1.88;;;;;;;;;;4785820;29;20059;-67
2022/01/31 07:12:39;;;;;;;17.25;2.40;;;;;;;;;;4786420;29;20234;-67
2022/01/31 07:15:07;;;;;;;14.38;1.90;;;;;;;;;;4786478;29;20139;-66
2022/01/31 07:17:35;;;;;;;11.98;2.33;;;;;;;;;;4787143;29;20106;-66
2022/01/31 07:20:03;;;;;;;12.60;2.30;;;;;;;;;;4783106;29;20066;-66
2022/01/31 07:22:34;;;;;;;16.23;2.00;;;;;;;;;;4780969;29;20523;-66
2022/01/31 07:25:06;;;;;;;15.85;2.67;;;;;;;;;;4782758;29;20070;-67
2022/01/31 07:27:33;;;;;;;14.00;3.17;;;;;;;;;;4784373;29;20071;-67
2022/01/31 07:29:59;;;;;;;13.13;1.98;;;;;;;;;;4783673;29;20039;-66
2022/01/31 07:32:25;;;;;;;11.30;2.20;;;;;;;;;;4783747;29;20145;-67
2022/01/31 07:34:55;;;;;;;18.60;2.30;;;;;;;;;;4785890;29;20055;-67
2022/01/31 07:37:21;;;;;;;10.43;1.77;;;;;;;;;;4771380;29;20653;-68
2022/01/31 07:39:47;;;;;;;13.25;2.85;;;;;;;;;;4774062;29;20047;-68
2022/01/31 07:42:13;;;;;;;17.83;2.67;;;;;;;;;;4783898;29;20362;-67
2022/01/31 07:44:40;;;;;;;18.85;2.50;;;;;;;;;;4781888;29;20048;-67
2022/01/31 07:47:06;;;;;;;19.67;3.13;;;;;;;;;;4782553;29;20126;-66
2022/01/31 07:49:32;;;;;;;13.18;2.42;;;;;;;;;;4783969;29;20043;-66
2022/01/31 07:51:59;;;;;;;18.08;3.25;;;;;;;;;;4785067;29;20083;-66
2022/01/31 07:54:25;;;;;;;16.25;3.28;;;;;;;;;;4783360;29;20035;-65
2022/01/31 07:56:51;;;;;;;13.23;2.13;;;;;;;;;;4783362;29;20039;-65
2022/01/31 07:59:17;;;;;;;9.43;1.85;;;;;;;;;;4783087;29;20126;-65
2022/01/31 08:01:43;;;;;;;13.30;2.35;;;;;;;;;;4784195;29;20059;-65
2022/01/31 08:04:10;;;;;;;11.18;2.08;;;;;;;;;;4765833;29;20051;-65
2022/01/31 08:06:36;;;;;;;17.58;2.65;;;;;;;;;;4782200;29;20512;-65
2022/01/31 08:09:03;;;;;;;7.95;1.83;;;;;;;;;;4781239;29;20054;-66
2022/01/31 08:11:34;;;;;;;12.55;2.15;;;;;;;;;;4783917;29;20091;-65
2022/01/31 08:14:05;;;;;;;14.93;2.13;;;;;;;;;;4785200;29;20111;-65
2022/01/31 08:16:32;;;;;;;15.88;2.40;;;;;;;;;;4783516;29;20104;-66
2022/01/31 08:18:58;;;;;;;23.48;3.00;;;;;;;;;;4796724;29;20058;-65
2022/01/31 08:21:24;;;;;;;22.50;3.40;;;;;;;;;;4783812;29;20050;-65
2022/01/31 08:23:51;;;;;;;17.38;2.72;;;;;;;;;;4781823;29;20100;-65
2022/01/31 08:26:17;;;;;;;25.65;3.47;;;;;;;;;;4784505;29;20055;-65
2022/01/31 08:28:50;;;;;;;26.67;4.15;;;;;;;;;;4783719;29;20082;-66
2022/01/31 08:31:40;;;;;;;30.83;4.60;;;;;;;;;;4785014;29;20055;-65
2022/01/31 08:34:07;;;;;;;;;;;;;;;;;;4783830;29;20070;-65
2022/01/31 08:36:36;;;;;;;26.23;4.38;;;;;;;;;;4783170;29;19961;-66
2022/01/31 08:39:08;;;;;;;19.27;3.88;;;;;;;;;;4782238;29;20069;-65
2022/01/31 08:41:37;;;;;;;18.40;3.60;;;;;;;;;;4783535;29;20089;-66
2022/01/31 08:44:04;;;;;;;12.18;2.90;;;;;;;;;;4782946;29;20503;-65
2022/01/31 08:46:30;;;;;;;8.07;2.22;;;;;;;;;;4783226;29;20146;-65
2022/01/31 08:48:58;;;;;;;11.95;2.25;;;;;;;;;;4779718;29;20382;-65
2022/01/31 08:51:25;;;;;;;19.20;2.72;;;;;;;;;;4780534;29;20169;-65
2022/01/31 08:53:51;;;;;;;16.35;3.05;;;;;;;;;;4778418;29;20054;-66
2022/01/31 08:56:18;;;;;;;10.82;2.53;;;;;;;;;;4782003;29;20062;-66
2022/01/31 08:58:47;;;;;;;12.68;2.30;;;;;;;;;;4780562;29;20085;-65
2022/01/31 09:01:17;;;;;;;17.63;2.95;;;;;;;;;;4778907;29;20074;-66
2022/01/31 09:04:00;;;;;;;10.45;2.58;;;;;;;;;;4783697;29;20078;-66
2022/01/31 09:06:27;;;;;;;10.45;2.10;;;;;;;;;;4781922;29;20523;-66
2022/01/31 09:08:53;;;;;;;12.90;1.80;;;;;;;;;;4778686;29;20223;-66
2022/01/31 09:11:20;;;;;;;11.13;1.92;;;;;;;;;;4783067;29;20466;-66
2022/01/31 09:13:46;;;;;;;10.23;1.88;;;;;;;;;;4783117;29;20052;-66
2022/01/31 09:16:12;;;;;;;8.73;1.80;;;;;;;;;;4780668;29;20100;-66
2022/01/31 09:18:38;;;;;;;8.88;1.65;;;;;;;;;;4780960;29;20067;-66
2022/01/31 09:21:05;;;;;;;14.38;2.40;;;;;;;;;;4782072;29;20101;-65
2022/01/31 09:23:32;;;;;;;13.43;2.50;;;;;;;;;;4781790;29;20070;-66
2022/01/31 09:25:58;;;;;;;16.27;2.80;;;;;;;;;;4781864;29;20493;-66
2022/01/31 09:28:25;;;;;;;15.95;2.20;;;;;;;;;;4780055;29;20441;-66
2022/01/31 09:30:55;;;;;;;16.20;2.88;;;;;;;;;;4780193;29;20055;-66
2022/01/31 09:33:21;;;;;;;13.68;2.35;;;;;;;;;;4783441;29;20490;-66
2022/01/31 09:35:48;;;;;;;13.50;2.20;;;;;;;;;;4781721;29;20055;-65
2022/01/31 09:38:16;;;;;;;19.70;2.30;;;;;;;;;;4783133;29;20040;-66
2022/01/31 09:40:43;;;;;;;12.43;2.15;;;;;;;;;;4781352;29;20051;-66
2022/01/31 09:50:59;;;;;;;9.63;1.83;;;;;;;;;;4782136;29;20055;-66
2022/01/31 09:53:25;;;;;;;9.77;2.08;;;;;;;;;;4779897;29;20047;-66
2022/01/31 09:55:54;;;;;;;13.93;2.25;;;;;;;;;;4779410;29;20185;-66
2022/01/31 09:58:20;;;;;;;10.60;1.60;;;;;;;;;;4780171;29;20059;-66
2022/01/31 10:00:46;;;;;;;13.18;1.73;;;;;;;;;;4781053;29;20520;-66
2022/01/31 10:03:13;;;;;;;12.63;1.73;;;;;;;;;;4781164;29;20115;-66
2022/01/31 10:05:40;;;;;;;13.30;2.03;;;;;;;;;;4782749;29;20063;-66
2022/01/31 10:08:17;;;;;;;10.90;2.00;;;;;;;;;;4784004;29;20043;-66
2022/01/31 10:10:45;;;;;;;14.88;2.33;;;;;;;;;;4783787;29;20055;-66
2022/01/31 10:16:32;;;;;;;12.40;2.03;;;;;;;;;;4784269;29;20130;-66
2022/01/31 10:18:58;;;;;;;11.95;2.13;;;;;;;;;;4784398;29;20110;-66
2022/01/31 10:21:24;;;;;;;12.32;2.20;;;;;;;;;;4785084;29;20054;-66
2022/01/31 10:23:50;;;;;;;12.68;2.17;;;;;;;;;;4784779;29;20043;-67
2022/01/31 10:26:30;;;;;;;9.55;1.70;;;;;;;;;;4784341;29;20109;-66
2022/01/31 10:29:08;;;;;;;18.77;2.60;;;;;;;;;;4786323;29;20054;-66
2022/01/31 10:31:34;;;;;;;15.18;2.17;;;;;;;;;;4785277;29;20066;-66
2022/01/31 10:34:12;;;;;;;16.65;2.28;;;;;;;;;;4784922;29;20055;-66
2022/01/31 10:36:39;;;;;;;15.32;2.45;;;;;;;;;;4784460;29;20051;-66
2022/01/31 10:43:12;;;;;;;15.48;2.40;;;;;;;;;;4785264;29;20047;-66
2022/01/31 10:53:07;;;;;;;9.32;1.70;;;;;;;;;;4785135;29;20059;-66
2022/01/31 10:55:33;;;;;;;11.05;1.85;;;;;;;;;;4785909;29;20122;-66
2022/01/31 10:58:01;;;;;;;9.60;1.58;;;;;;;;;;4783267;29;20059;-66
2022/01/31 11:00:32;;;;;;;6.13;1.50;;;;;;;;;;4783638;29;21543;-66
2022/01/31 11:02:58;;;;;;;10.52;2.20;;;;;;;;;;4782337;29;20154;-66
2022/01/31 11:05:24;;;;;;;8.15;1.73;;;;;;;;;;4783186;29;20081;-66
2022/01/31 11:07:50;;;;;;;6.35;1.27;;;;;;;;;;4783447;29;20069;-67
2022/01/31 11:10:27;;;;;;;7.68;1.20;;;;;;;;;;4784253;29;20377;-66
2022/01/31 11:12:53;;;;;;;6.28;1.38;;;;;;;;;;4781710;29;20035;-66
2022/01/31 11:15:19;;;;;;;5.07;1.10;;;;;;;;;;4783257;29;20051;-66
2022/01/31 11:18:00;;;;;;;7.93;1.48;;;;;;;;;;4783079;29;20062;-66
2022/01/31 11:20:26;;;;;;;5.57;1.20;;;;;;;;;;4783923;29;20054;-66
2022/01/31 11:22:58;;;;;;;6.78;1.38;;;;;;;;;;4784256;29;20051;-66
2022/01/31 11:25:29;;;;;;;3.97;1.27;;;;;;;;;;4784644;29;20108;-66
2022/01/31 11:27:59;;;;;;;5.88;1.40;;;;;;;;;;4783268;29;20054;-66
2022/01/31 11:30:26;;;;;;;5.70;1.52;;;;;;;;;;4783171;29;20089;-67
2022/01/31 11:32:53;;;;;;;5.90;0.95;;;;;;;;;;4783106;29;20059;-66
2022/01/31 11:35:19;;;;;;;4.78;1.17;;;;;;;;;;4782343;29;20138;-66
2022/01/31 11:37:45;;;;;;;5.50;1.63;;;;;;;;;;4784154;29;20055;-66
2022/01/31 11:40:12;;;;;;;3.33;1.40;;;;;;;;;;4784466;29;20390;-66
2022/01/31 11:42:41;;;;;;;6.50;1.48;;;;;;;;;;4781918;29;20086;-66
2022/01/31 11:45:23;;;;;;;3.13;1.00;;;;;;;;;;4784585;29;20134;-66
2022/01/31 11:47:52;;;;;;;3.90;1.00;;;;;;;;;;4785605;29;20389;-66
2022/01/31 11:50:19;;;;;;;5.28;1.00;;;;;;;;;;4784023;29;20043;-66
2022/01/31 11:52:47;;;;;;;5.20;1.13;;;;;;;;;;4785226;29;20437;-66
2022/01/31 11:55:14;;;;;;;2.83;1.33;;;;;;;;;;4783952;29;20075;-66
2022/01/31 11:57:40;;;;;;;6.70;1.58;;;;;;;;;;4784126;29;20051;-66
2022/01/31 12:00:08;;;;;;;6.60;1.67;;;;;;;;;;4784541;29;20485;-66
2022/01/31 12:02:41;;;;;;;9.50;2.05;;;;;;;;;;4783744;29;20043;-66
2022/01/31 12:05:10;;;;;;;15.13;2.70;;;;;;;;;;4779388;29;20154;-66
2022/01/31 12:07:46;;;;;;;10.10;2.58;;;;;;;;;;4784004;29;20059;-65
2022/01/31 12:10:12;;;;;;;;;;;;;;;;;;4781585;29;20102;-66
2022/01/31 12:12:46;;;;;;;15.05;2.67;;;;;;;;;;4783162;29;20411;-66
2022/01/31 12:16:01;;;;;;;15.43;2.90;;;;;;;;;;4783412;29;20039;-66
2022/01/31 12:23:52;;;;;;;17.10;4.20;;;;;;;;;;4783882;29;20047;-67
2022/01/31 12:26:33;;;;;;;28.42;3.92;;;;;;;;;;4783761;29;20112;-67
2022/01/31 12:29:01;;;;;;;28.02;4.28;;;;;;;;;;4783434;29;20718;-67
2022/01/31 12:31:31;;;;;;;22.85;4.03;;;;;;;;;;4784390;29;20138;-67
2022/01/31 12:33:58;;;;;;;19.17;3.08;;;;;;;;;;4784918;29;20112;-67
2022/01/31 12:36:47;;;;;;;22.40;3.40;;;;;;;;;;4782856;29;20146;-67
2022/01/31 12:39:37;;;;;;;22.98;4.10;;;;;;;;;;4783424;29;20066;-66
2022/01/31 12:42:41;;;;;;;18.17;3.55;;;;;;;;;;4783686;29;20133;-66
2022/01/31 12:45:07;;;;;;;16.88;3.13;;;;;;;;;;4781549;29;21055;-66
2022/01/31 12:47:33;;;;;;;20.52;3.53;;;;;;;;;;4782142;29;20043;-66
2022/01/31 12:50:19;;;;;;;16.77;3.40;;;;;;;;;;4782301;29;20051;-66
2022/01/31 12:52:45;;;;;;;17.33;3.27;;;;;;;;;;4783088;29;20062;-66
2022/01/31 12:55:12;;;;;;;19.88;3.10;;;;;;;;;;4781444;29;20508;-66
2022/01/31 12:57:51;;;;;;;22.58;3.53;;;;;;;;;;4783981;29;20067;-66
2022/01/31 13:00:31;;;;;;;16.95;2.85;;;;;;;;;;4782537;29;20555;-65
2022/01/31 13:02:57;;;;;;;25.23;3.83;;;;;;;;;;4783723;29;21510;-66
2022/01/31 13:05:33;;;;;;;14.82;3.15;;;;;;;;;;4781967;29;20051;-66
2022/01/31 13:07:59;;;;;;;20.88;3.30;;;;;;;;;;4783180;29;20051;-66
2022/01/31 13:10:25;;;;;;;18.45;2.60;;;;;;;;;;4783020;29;20134;-66
2022/01/31 13:12:59;;;;;;;16.83;2.78;;;;;;;;;;4782666;29;20075;-66
2022/01/31 13:15:25;;;;;;;13.55;2.38;;;;;;;;;;4781907;29;20124;-66
2022/01/31 13:18:01;;;;;;;13.07;1.90;;;;;;;;;;4781374;29;20043;-66
2022/01/31 13:20:28;;;;;;;14.27;2.60;;;;;;;;;;4780860;29;20038;-66
2022/01/31 13:22:54;;;;;;;13.30;2.22;;;;;;;;;;4781886;29;20051;-66
2022/01/31 13:25:21;;;;;;;17.63;2.95;;;;;;;;;;4783190;29;20057;-66
2022/01/31 13:27:47;;;;;;;14.27;1.88;;;;;;;;;;4782692;29;20051;-66
2022/01/31 13:30:24;;;;;;;15.70;2.50;;;;;;;;;;4781378;29;20103;-66
2022/01/31 13:32:50;;;;;;;13.73;2.58;;;;;;;;;;4779725;29;20054;-66
2022/01/31 13:35:17;;;;;;;17.08;3.15;;;;;;;;;;4780220;29;20063;-65
2022/01/31 13:38:01;;;;;;;17.60;3.28;;;;;;;;;;4780620;29;20052;-67
2022/01/31 13:40:36;;;;;;;20.17;3.60;;;;;;;;;;4778584;29;20055;-66
2022/01/31 13:43:09;;;;;;;27.00;3.78;;;;;;;;;;4781419;29;20118;-66
2022/01/31 13:45:42;;;;;;;35.25;4.88;;;;;;;;;;4781701;29;20417;-66
2022/01/31 13:48:14;;;;;;;30.10;4.93;;;;;;;;;;4782657;29;20116;-67
2022/01/31 13:50:42;;;;;;;29.25;5.13;;;;;;;;;;4782638;29;20591;-66
2022/01/31 13:53:10;;;;;;;34.58;5.45;;;;;;;;;;4783263;29;20063;-66
2022/01/31 13:55:40;;;;;;;21.83;5.10;;;;;;;;;;4785368;29;20070;-66
2022/01/31 13:58:06;;;;;;;27.42;4.40;;;;;;;;;;4785991;29;20424;-66
2022/01/31 14:00:42;;;;;;;26.80;4.18;;;;;;;;;;4781906;29;20055;-66
2022/01/31 14:03:11;;;;;;;24.85;4.50;;;;;;;;;;4785954;29;20184;-66
2022/01/31 14:05:41;;;;;;;24.60;4.18;;;;;;;;;;4782402;29;20067;-66
2022/01/31 14:08:13;;;;;;;27.20;3.85;;;;;;;;;;4782156;29;21032;-66
2022/01/31 14:10:39;;;;;;;27.15;4.47;;;;;;;;;;4785844;29;20050;-66
2022/01/31 14:13:06;;;;;;;27.38;4.05;;;;;;;;;;4783484;29;20416;-66
2022/01/31 14:15:45;;;;;;;28.73;4.68;;;;;;;;;;4786239;29;20046;-66
2022/01/31 14:18:14;;;;;;;25.20;3.83;;;;;;;;;;4784087;29;20082;-66
2022/01/31 14:20:40;;;;;;;22.88;4.38;;;;;;;;;;4784937;29;20043;-66
2022/01/31 14:23:10;;;;;;;27.20;3.88;;;;;;;;;;4783703;29;20156;-66
2022/01/31 14:25:37;;;;;;;32.20;4.75;;;;;;;;;;4784984;29;20041;-66
2022/01/31 14:28:05;;;;;;;25.23;4.60;;;;;;;;;;4784418;29;20043;-66
2022/01/31 14:30:31;;;;;;;27.15;4.40;;;;;;;;;;4782990;29;20054;-66
2022/01/31 14:33:01;;;;;;;27.05;5.40;;;;;;;;;;4785167;29;20425;-66
2022/01/31 14:35:28;;;;;;;25.13;4.65;;;;;;;;;;4783718;29;20061;-66
2022/01/31 14:37:58;;;;;;;31.70;4.72;;;;;;;;;;4784425;29;20051;-66
2022/01/31 14:41:04;;;;;;;27.02;5.65;;;;;;;;;;4782073;29;20055;-66
2022/01/31 14:49:03;;;;;;;17.30;3.22;;;;;;;;;;4786106;29;20067;-66
2022/01/31 14:51:31;;;;;;;21.13;3.30;;;;;;;;;;4784749;29;20053;-66
2022/01/31 14:53:58;;;;;;;16.75;3.13;;;;;;;;;;4783830;29;20062;-66
2022/01/31 14:56:24;;;;;;;15.82;3.65;;;;;;;;;;4785046;29;20146;-66
2022/01/31 14:58:50;;;;;;;12.45;3.25;;;;;;;;;;4786052;29;20043;-66
2022/01/31 15:01:16;;;;;;;11.73;2.45;;;;;;;;;;4782026;29;20059;-66
2022/01/31 15:03:42;;;;;;;18.15;2.78;;;;;;;;;;4785274;29;20447;-66
2022/01/31 15:06:09;;;;;;;7.65;2.42;;;;;;;;;;4783007;29;20098;-66
2022/01/31 15:08:35;;;;;;;13.25;2.58;;;;;;;;;;4785532;29;20054;-65
2022/01/31 15:11:02;;;;;;;10.10;1.63;;;;;;;;;;4783164;29;20051;-65
2022/01/31 15:13:28;;;;;;;8.90;1.48;;;;;;;;;;4783463;29;20051;-65
2022/01/31 15:15:55;;;;;;;8.07;1.38;;;;;;;;;;4784675;29;20083;-65